Time;durP1;ratioP1;P1;durP2;ratioP2;P2;SDS_P1;SDS_P2;PMS_P1;PMS_P2;Temp;Humidity;BMP_temperature;BMP_pressure;BME280_temperature;BME280_humidity;BME280_pressure;Samples;Min_cycle;Max_cycle;Signal;HPM_P1;HPM_P2
2022/05/25 00:01:53;;;;;;;4.20;2.50;;;16.50;93.30;;;;;;5013529;28;20025;-54
2022/05/25 00:04:19;;;;;;;12.23;8.52;;;16.40;93.50;;;;;;5013315;28;20030;-49
2022/05/25 00:06:45;;;;;;;18.25;13.65;;;16.50;93.70;;;;;;5012122;28;20041;-53
2022/05/25 00:09:11;;;;;;;14.40;11.00;;;16.50;93.40;;;;;;5012120;28;20502;-50
2022/05/25 00:11:37;;;;;;;5.45;3.75;;;16.50;93.50;;;;;;5013050;28;20038;-54
2022/05/25 00:14:03;;;;;;;4.03;3.03;;;16.40;93.70;;;;;;5013167;28;20111;-51
2022/05/25 00:16:28;;;;;;;3.08;2.50;;;16.30;93.90;;;;;;5011876;28;20092;-51
2022/05/25 00:21:38;;;;;;;5.22;2.95;;;16.10;94.20;;;;;;5013612;28;20038;-53
2022/05/25 00:24:04;;;;;;;5.68;3.17;;;16.00;94.50;;;;;;4995730;28;20042;-51
2022/05/25 00:26:31;;;;;;;4.68;3.53;;;15.90;94.40;;;;;;5011610;28;20641;-49
2022/05/25 00:28:57;;;;;;;3.63;3.08;;;15.60;94.60;;;;;;5012155;28;20469;-52
2022/05/25 00:31:23;;;;;;;3.85;3.25;;;15.50;94.70;;;;;;5012198;28;20076;-50
2022/05/25 00:33:48;;;;;;;4.97;3.45;;;15.10;95.70;;;;;;5012515;28;20065;-52
2022/05/25 00:36:14;;;;;;;6.63;3.78;;;14.90;96.20;;;;;;5012341;28;20034;-49
2022/05/25 00:38:39;;;;;;;6.22;3.70;;;14.60;97.40;;;;;;4979407;28;20022;-53
2022/05/25 00:41:05;;;;;;;12.25;7.70;;;14.50;97.90;;;;;;5011942;28;20029;-50
2022/05/25 00:43:31;;;;;;;5.47;3.50;;;14.50;98.80;;;;;;5013268;28;20103;-55
2022/05/25 00:46:02;;;;;;;5.20;3.67;;;14.30;99.10;;;;;;5012599;28;20685;-55
2022/05/25 00:48:30;;;;;;;5.53;3.33;;;14.20;99.70;;;;;;5013282;28;20041;-55
2022/05/25 00:51:15;;;;;;;6.32;3.70;;;14.30;99.70;;;;;;5011443;28;20064;-56
2022/05/25 00:53:52;;;;;;;6.40;3.28;;;14.40;99.60;;;;;;5011767;28;20033;-50
2022/05/25 00:56:20;;;;;;;5.40;3.53;;;14.40;99.50;;;;;;5011457;28;20513;-53
2022/05/25 00:58:53;;;;;;;6.15;4.32;;;14.20;99.90;;;;;;5012280;28;20338;-54
2022/05/25 01:01:19;;;;;;;3.75;3.40;;;14.20;99.90;;;;;;5013623;28;20030;-52
2022/05/25 01:03:44;;;;;;;6.57;3.63;;;14.20;99.90;;;;;;5013326;28;20087;-49
2022/05/25 01:06:25;;;;;;;6.68;3.72;;;14.10;99.90;;;;;;5013324;28;20072;-50
2022/05/25 01:09:33;;;;;;;4.28;3.35;;;14.20;99.90;;;;;;5013851;28;20030;-54
2022/05/25 01:12:13;;;;;;;5.13;4.10;;;14.30;99.90;;;;;;5013590;28;20034;-55
2022/05/25 01:14:57;;;;;;;6.45;3.50;;;14.50;99.90;;;;;;5013698;28;20058;-53
2022/05/25 01:17:47;;;;;;;5.50;3.70;;;14.50;99.70;;;;;;5006096;28;20018;-52
2022/05/25 01:20:41;;;;;;;5.57;3.88;;;14.50;99.70;;;;;;5013487;28;20104;-55
2022/05/25 01:23:40;;;;;;;4.90;3.72;;;14.60;99.80;;;;;;5012906;28;20122;-51
2022/05/25 01:26:46;;;;;;;7.72;3.90;;;14.80;99.40;;;;;;5011787;28;20497;-55
2022/05/25 01:29:46;;;;;;;4.70;3.67;;;14.80;99.50;;;;;;5012761;28;20390;-50
2022/05/25 01:32:42;;;;;;;6.30;3.53;;;15.00;99.00;;;;;;4992685;28;20494;-53
2022/05/25 01:35:26;;;;;;;5.47;3.85;;;14.90;99.10;;;;;;4996954;28;20092;-54
2022/05/25 01:38:06;;;;;;;6.30;3.53;;;14.80;98.90;;;;;;5011745;28;20034;-51
2022/05/25 01:40:35;;;;;;;3.85;3.45;;;14.70;99.10;;;;;;5012484;28;20049;-54
2022/05/25 01:43:22;;;;;;;6.80;3.90;;;14.80;99.20;;;;;;5012564;28;20021;-53
2022/05/25 01:46:13;;;;;;;4.90;3.95;;;14.80;98.90;;;;;;5011777;28;20017;-48
2022/05/25 01:48:41;;;;;;;6.78;4.35;;;14.80;98.90;;;;;;5012183;28;20026;-51
2022/05/25 01:51:13;;;;;;;7.93;7.10;;;14.80;98.80;;;;;;5012763;28;20477;-51
2022/05/25 01:53:43;;;;;;;6.90;6.20;;;14.90;98.90;;;;;;5013339;28;20081;-54
2022/05/25 01:56:13;;;;;;;9.77;5.60;;;14.90;99.10;;;;;;4993832;28;20400;-52
2022/05/25 01:58:44;;;;;;;9.90;7.47;;;14.90;99.40;;;;;;5011835;28;20107;-53
2022/05/25 02:01:12;;;;;;;9.13;6.75;;;14.90;99.40;;;;;;5012353;28;20034;-53
2022/05/25 02:06:28;;;;;;;10.07;7.60;;;14.90;99.30;;;;;;5011528;28;20034;-53
2022/05/25 02:09:34;;;;;;;9.60;7.00;;;14.90;99.30;;;;;;5013386;28;20033;-49
2022/05/25 02:12:17;;;;;;;6.18;4.90;;;14.90;99.50;;;;;;5012822;28;20419;-49
2022/05/25 02:15:01;;;;;;;5.28;3.40;;;14.80;99.50;;;;;;5012302;28;20597;-51
2022/05/25 02:17:26;;;;;;;6.07;4.55;;;14.90;99.20;;;;;;5011639;28;20026;-53
2022/05/25 02:20:25;;;;;;;4.95;3.97;;;14.60;99.90;;;;;;5012519;28;20045;-49
2022/05/25 02:22:55;;;;;;;7.53;5.03;;;14.60;99.90;;;;;;5013442;28;20036;-49
2022/05/25 02:25:25;;;;;;;4.85;4.25;;;14.70;99.90;;;;;;5014835;28;20061;-51
2022/05/25 02:28:01;;;;;;;5.82;4.30;;;14.60;99.80;;;;;;5014189;28;20523;-55
2022/05/25 02:30:31;;;;;;;5.60;4.53;;;14.40;99.90;;;;;;5014713;28;20092;-51
2022/05/25 02:33:15;;;;;;;6.93;4.82;;;14.50;99.90;;;;;;5013574;28;20076;-50
2022/05/25 02:35:44;;;;;;;6.88;4.38;;;14.50;99.90;;;;;;5011815;28;20046;-54
2022/05/25 02:38:10;;;;;;;4.57;4.13;;;14.50;99.90;;;;;;5012400;28;20045;-53
2022/05/25 02:40:38;;;;;;;5.53;4.03;;;14.50;99.90;;;;;;5013062;28;20033;-53
2022/05/25 02:43:06;;;;;;;6.22;3.70;;;14.60;99.90;;;;;;5011641;28;20366;-53
2022/05/25 02:45:32;;;;;;;8.10;3.95;;;14.40;99.60;;;;;;5011872;28;20680;-48
2022/05/25 02:47:57;;;;;;;5.88;4.60;;;14.30;99.80;;;;;;5012028;28;20339;-51
2022/05/25 02:50:23;;;;;;;6.13;4.00;;;14.20;99.90;;;;;;5015650;28;20753;-51
2022/05/25 02:52:49;;;;;;;5.65;3.85;;;14.10;99.90;;;;;;5016484;28;20034;-48
2022/05/25 02:55:15;;;;;;;7.20;4.32;;;14.10;99.90;;;;;;5015636;28;20125;-49
2022/05/25 02:57:40;;;;;;;5.03;4.10;;;14.20;99.90;;;;;;5015281;28;20381;-51
2022/05/25 03:00:07;;;;;;;4.93;4.35;;;14.30;99.90;;;;;;5017279;28;20088;-54
2022/05/25 03:02:34;;;;;;;5.45;4.05;;;14.30;99.90;;;;;;5021203;28;20026;-55
2022/05/25 03:04:59;;;;;;;4.93;4.13;;;14.30;99.90;;;;;;5018524;28;20057;-50
2022/05/25 03:07:25;;;;;;;5.25;4.10;;;14.30;99.90;;;;;;5024410;28;20034;-52
2022/05/25 03:09:51;;;;;;;7.82;3.97;;;14.30;99.90;;;;;;5026660;28;20065;-53
2022/05/25 03:12:17;;;;;;;5.15;4.38;;;14.30;99.90;;;;;;5022145;28;20034;-54
2022/05/25 03:14:43;;;;;;;6.13;4.28;;;14.30;99.90;;;;;;5015298;28;20030;-53
2022/05/25 03:17:12;;;;;;;5.30;4.32;;;14.30;99.90;;;;;;5015411;28;20022;-54
2022/05/25 03:19:39;;;;;;;6.80;4.15;;;14.40;99.90;;;;;;5014598;28;20034;-50
2022/05/25 03:22:06;;;;;;;7.30;4.32;;;14.40;99.90;;;;;;5015930;28;20030;-52
2022/05/25 03:24:31;;;;;;;5.95;4.15;;;14.40;99.90;;;;;;5014235;28;20038;-52
2022/05/25 03:26:58;;;;;;;4.10;3.70;;;14.40;99.90;;;;;;5014239;28;20030;-52
2022/05/25 03:29:25;;;;;;;6.00;3.83;;;14.30;99.90;;;;;;5015488;28;20033;-54
2022/05/25 03:31:51;;;;;;;9.45;4.55;;;14.30;99.90;;;;;;5014835;28;20405;-55
2022/05/25 03:34:18;;;;;;;7.25;4.55;;;14.30;99.90;;;;;;4981241;28;20053;-55
2022/05/25 03:36:44;;;;;;;7.22;4.20;;;14.20;99.90;;;;;;5014347;28;20034;-52
2022/05/25 03:39:09;;;;;;;5.50;4.90;;;14.30;99.90;;;;;;5014982;28;20040;-56
2022/05/25 03:41:35;;;;;;;7.90;4.32;;;14.20;99.90;;;;;;5015348;28;20030;-53
2022/05/25 03:44:01;;;;;;;6.22;4.20;;;14.20;99.90;;;;;;5014192;28;20044;-51
2022/05/25 03:46:27;;;;;;;4.80;4.00;;;14.20;99.90;;;;;;5013994;28;20037;-52
2022/05/25 03:48:52;;;;;;;6.00;4.13;;;14.10;99.90;;;;;;4997103;28;20042;-54
2022/05/25 03:51:18;;;;;;;4.93;3.95;;;14.10;99.90;;;;;;4997601;28;20073;-50
2022/05/25 03:53:43;;;;;;;6.57;4.20;;;14.10;99.90;;;;;;5014319;28;20132;-52
2022/05/25 03:56:09;;;;;;;4.88;3.90;;;14.20;99.90;;;;;;5013958;28;20026;-50
2022/05/25 03:58:35;;;;;;;5.70;4.32;;;14.30;99.90;;;;;;4997174;28;20030;-52
2022/05/25 04:01:00;;;;;;;6.63;4.07;;;14.30;99.90;;;;;;5013828;28;20105;-54
2022/05/25 04:03:26;;;;;;;6.13;4.47;;;14.40;99.90;;;;;;5014775;28;20033;-54
2022/05/25 04:05:51;;;;;;;8.65;4.20;;;14.50;99.90;;;;;;5013647;28;20069;-56
2022/05/25 04:08:17;;;;;;;5.22;4.13;;;14.40;99.90;;;;;;5014870;28;20030;-49
2022/05/25 04:10:43;;;;;;;7.15;4.05;;;14.40;99.90;;;;;;5017924;28;20044;-55
2022/05/25 04:13:08;;;;;;;5.85;4.00;;;14.40;99.90;;;;;;5018622;28;20042;-54
2022/05/25 04:15:35;;;;;;;5.65;3.95;;;14.40;99.80;;;;;;5000195;28;20363;-54
2022/05/25 04:18:02;;;;;;;4.63;4.20;;;14.40;99.90;;;;;;5013721;28;20396;-55
2022/05/25 04:20:29;;;;;;;6.95;4.07;;;14.30;99.90;;;;;;5013663;28;20026;-55
2022/05/25 04:22:55;;;;;;;4.80;3.95;;;14.30;99.90;;;;;;5013988;28;20030;-53
2022/05/25 04:25:23;;;;;;;5.63;4.32;;;14.20;99.90;;;;;;5012390;28;20045;-51
2022/05/25 04:27:54;;;;;;;5.63;3.75;;;14.20;99.90;;;;;;5013426;28;20037;-50
2022/05/25 04:30:23;;;;;;;4.60;3.67;;;14.10;99.90;;;;;;4994091;28;20113;-53
2022/05/25 04:32:49;;;;;;;5.43;4.28;;;14.00;99.90;;;;;;5003438;28;20033;-51
2022/05/25 04:35:15;;;;;;;8.02;4.28;;;14.00;99.90;;;;;;5012597;28;20409;-51
2022/05/25 04:37:53;;;;;;;10.88;7.55;;;13.80;99.90;;;;;;5013270;28;20038;-49
2022/05/25 04:40:29;;;;;;;6.22;5.20;;;13.90;99.90;;;;;;5013152;28;20030;-53
2022/05/25 04:42:57;;;;;;;8.45;4.70;;;13.90;99.90;;;;;;5013799;28;20018;-52
2022/05/25 04:45:25;;;;;;;6.43;3.95;;;13.70;99.90;;;;;;5013455;28;20037;-56
2022/05/25 04:47:52;;;;;;;7.85;4.72;;;13.70;99.90;;;;;;5012868;28;20509;-50
2022/05/25 04:50:20;;;;;;;6.07;4.20;;;13.80;99.90;;;;;;5013066;28;20444;-54
2022/05/25 04:52:46;;;;;;;8.75;4.70;;;13.80;99.90;;;;;;5013156;28;20030;-51
2022/05/25 04:57:19;;;;;;;5.65;4.20;;;13.90;99.90;;;;;;5012583;28;20482;-51
2022/05/25 04:57:58;;;;;;;5.22;3.65;;;13.80;99.90;;;;;;5012705;28;20045;-52
2022/05/25 05:00:24;;;;;;;8.40;5.00;;;13.70;99.90;;;;;;5012992;28;20037;-52
2022/05/25 05:02:50;;;;;;;9.70;6.28;;;13.80;99.90;;;;;;5012430;28;20022;-49
2022/05/25 05:05:17;;;;;;;4.68;3.83;;;13.80;99.90;;;;;;5012169;28;20145;-51
2022/05/25 05:07:43;;;;;;;5.43;3.83;;;13.90;99.90;;;;;;5013159;28;20041;-55
2022/05/25 05:10:09;;;;;;;5.53;3.92;;;13.70;99.90;;;;;;5014189;28;20033;-49
2022/05/25 05:12:36;;;;;;;7.50;4.50;;;13.90;99.90;;;;;;5014075;28;20523;-53
2022/05/25 05:15:03;;;;;;;6.35;4.10;;;13.80;99.90;;;;;;4994890;28;20042;-54
2022/05/25 05:17:29;;;;;;;4.80;4.28;;;13.60;99.90;;;;;;4994336;28;20025;-51
2022/05/25 05:19:56;;;;;;;5.38;3.92;;;13.70;99.90;;;;;;5013982;28;20026;-50
2022/05/25 05:22:22;;;;;;;5.70;3.72;;;13.90;99.90;;;;;;5013573;28;20030;-53
2022/05/25 05:24:48;;;;;;;5.22;4.20;;;13.80;99.90;;;;;;5012975;28;20456;-51
2022/05/25 05:27:13;;;;;;;10.90;4.15;;;13.70;99.90;;;;;;5012419;28;20033;-53
2022/05/25 05:29:39;;;;;;;4.65;4.25;;;13.80;99.90;;;;;;5013015;28;20695;-53
2022/05/25 05:32:05;;;;;;;9.07;4.28;;;14.00;99.90;;;;;;5013320;28;20029;-51
2022/05/25 05:34:31;;;;;;;5.97;4.00;;;14.30;99.90;;;;;;5012453;28;20041;-54
2022/05/25 05:37:04;;;;;;;10.10;6.30;;;14.40;99.90;;;;;;5012383;28;20409;-57
2022/05/25 05:39:35;;;;;;;7.22;4.18;;;14.50;99.90;;;;;;4995309;28;20048;-53
2022/05/25 05:42:07;;;;;;;6.70;4.03;;;14.60;99.90;;;;;;5013496;28;20473;-55
2022/05/25 05:44:46;;;;;;;5.18;3.55;;;14.70;99.90;;;;;;5012813;28;20038;-55
2022/05/25 05:47:14;;;;;;;6.10;4.13;;;14.80;99.90;;;;;;5012591;28;20388;-53
2022/05/25 05:49:40;;;;;;;7.25;4.65;;;14.70;99.90;;;;;;4996089;28;20045;-50
2022/05/25 05:52:06;;;;;;;11.20;4.32;;;14.60;99.90;;;;;;5014304;28;20045;-53
2022/05/25 05:54:32;;;;;;;7.53;4.28;;;14.60;99.90;;;;;;5015161;28;20033;-54
2022/05/25 05:56:58;;;;;;;11.18;4.85;;;14.70;99.90;;;;;;5014048;28;20060;-54
2022/05/25 05:59:24;;;;;;;8.48;3.97;;;14.50;99.90;;;;;;5012910;28;20501;-56
2022/05/25 06:01:49;;;;;;;4.25;3.40;;;14.40;99.90;;;;;;5012890;28;20030;-51
2022/05/25 06:04:16;;;;;;;5.38;3.20;;;14.60;99.90;;;;;;5012361;28;20519;-54
2022/05/25 06:06:42;;;;;;;11.25;3.88;;;14.80;99.90;;;;;;5011390;28;20030;-51
2022/05/25 06:09:08;;;;;;;7.82;3.53;;;15.00;99.90;;;;;;5011670;28;20045;-46
2022/05/25 06:11:38;;;;;;;16.83;6.25;;;15.10;99.90;;;;;;5002720;28;20068;-54
2022/05/25 06:14:04;;;;;;;11.98;5.18;;;15.10;99.90;;;;;;5012177;28;20030;-57
2022/05/25 06:19:27;;;;;;;7.65;4.40;;;15.20;99.90;;;;;;5012094;28;20064;-56
2022/05/25 06:22:05;;;;;;;9.65;3.90;;;15.30;99.90;;;;;;5012944;28;20042;-51
2022/05/25 06:24:36;;;;;;;10.70;3.97;;;15.30;99.90;;;;;;5013492;28;20037;-50
2022/05/25 06:27:02;;;;;;;6.88;3.60;;;15.20;99.50;;;;;;5015139;28;20693;-54
2022/05/25 06:29:27;;;;;;;10.88;3.53;;;15.30;99.60;;;;;;5016397;28;20034;-52
2022/05/25 06:31:53;;;;;;;10.02;4.32;;;15.20;99.60;;;;;;5016213;28;20046;-51
2022/05/25 06:34:18;;;;;;;4.57;3.60;;;15.20;99.80;;;;;;5015527;28;20048;-49
2022/05/25 06:36:47;;;;;;;10.93;3.92;;;15.20;99.40;;;;;;5015657;28;20088;-55
2022/05/25 06:39:13;;;;;;;7.55;3.97;;;15.20;99.70;;;;;;5017365;28;20038;-51
2022/05/25 06:41:38;;;;;;;5.90;3.85;;;15.30;99.60;;;;;;5017124;28;20384;-53
2022/05/25 06:44:04;;;;;;;8.02;4.10;;;15.30;99.50;;;;;;5017614;28;20030;-51
2022/05/25 06:46:30;;;;;;;9.50;4.57;;;15.30;99.80;;;;;;5013808;28;20026;-51
2022/05/25 06:48:58;;;;;;;7.95;4.10;;;15.20;99.90;;;;;;5015698;28;20034;-49
2022/05/25 06:51:32;;;;;;;13.10;5.05;;;15.30;99.90;;;;;;5016483;28;20030;-55
2022/05/25 06:53:58;;;;;;;;;;;15.40;99.70;;;;;;5017322;28;20026;-50
2022/05/25 06:56:24;;;;;;;9.48;4.75;;;15.40;99.40;;;;;;5021330;28;19979;-52
2022/05/25 06:58:52;;;;;;;11.52;4.13;;;15.30;99.70;;;;;;5026879;28;20037;-52
2022/05/25 07:01:18;;;;;;;8.35;3.90;;;15.20;99.90;;;;;;5023509;28;20081;-50
2022/05/25 07:03:44;;;;;;;56.42;9.38;;;15.40;99.90;;;;;;5019611;28;20057;-51
2022/05/25 07:06:11;;;;;;;57.80;10.38;;;15.40;99.90;;;;;;5002661;28;20041;-49
2022/05/25 07:08:36;;;;;;;36.08;8.30;;;15.40;99.80;;;;;;5009819;28;20026;-51
2022/05/25 07:11:03;;;;;;;10.02;3.95;;;15.40;99.30;;;;;;5014868;28;20546;-50
2022/05/25 07:13:30;;;;;;;14.77;4.65;;;15.30;99.40;;;;;;5015037;28;20049;-52
2022/05/25 07:16:01;;;;;;;32.60;7.45;;;15.20;99.60;;;;;;5012591;28;20037;-56
2022/05/25 07:18:28;;;;;;;14.25;5.03;;;15.20;99.70;;;;;;5009943;28;20038;-52
2022/05/25 07:21:14;;;;;;;6.85;4.50;;;15.10;99.60;;;;;;5014419;28;20022;-52
2022/05/25 07:23:42;;;;;;;7.00;4.10;;;15.20;99.50;;;;;;5008622;28;20125;-51
2022/05/25 07:26:09;;;;;;;6.70;3.95;;;15.40;99.50;;;;;;5014285;28;20041;-51
2022/05/25 07:28:35;;;;;;;4.40;4.00;;;15.40;99.60;;;;;;5014415;28;20037;-48
2022/05/25 07:31:19;;;;;;;6.28;4.07;;;15.50;99.50;;;;;;5015084;28;20662;-56
2022/05/25 07:33:48;;;;;;;7.53;4.47;;;15.60;99.20;;;;;;5014147;28;20034;-55
2022/05/25 07:36:14;;;;;;;4.50;3.67;;;15.60;99.30;;;;;;5014167;28;20536;-55
2022/05/25 07:38:44;;;;;;;8.05;4.30;;;15.50;99.30;;;;;;5015452;28;20113;-57
2022/05/25 07:41:10;;;;;;;7.50;4.53;;;15.60;98.80;;;;;;5014075;28;20109;-55
2022/05/25 07:43:40;;;;;;;5.32;3.95;;;15.60;98.50;;;;;;5014986;28;20061;-54
2022/05/25 07:46:05;;;;;;;8.18;3.90;;;15.60;98.90;;;;;;5014576;28;20029;-55
2022/05/25 07:48:31;;;;;;;5.53;4.00;;;15.60;98.70;;;;;;5015241;28;20041;-55
2022/05/25 07:50:57;;;;;;;4.50;3.72;;;15.50;98.10;;;;;;5014769;28;20057;-52
2022/05/25 07:56:07;;;;;;;6.03;3.15;;;15.90;97.40;;;;;;5017073;28;20097;-56
2022/05/25 07:58:33;;;;;;;5.78;3.58;;;16.10;97.30;;;;;;5016980;28;20058;-56
2022/05/25 08:01:08;;;;;;;4.20;2.90;;;16.30;96.40;;;;;;5014350;28;20374;-52
2022/05/25 08:06:18;;;;;;;3.85;2.97;;;16.40;96.00;;;;;;5011321;28;20500;-54
2022/05/25 08:08:45;;;;;;;4.80;3.47;;;16.40;95.90;;;;;;5013056;28;20053;-53
2022/05/25 08:11:13;;;;;;;5.43;3.30;;;16.80;93.20;;;;;;5010425;28;20127;-54
2022/05/25 08:13:44;;;;;;;6.05;3.25;;;16.80;94.10;;;;;;5011919;28;20038;-53
2022/05/25 08:16:10;;;;;;;9.98;3.03;;;16.80;94.50;;;;;;5010667;28;20024;-54
2022/05/25 08:18:36;;;;;;;9.90;4.10;;;16.70;94.50;;;;;;5009729;28;20108;-56
2022/05/25 08:21:03;;;;;;;3.65;3.20;;;16.50;94.80;;;;;;5011549;28;20474;-55
2022/05/25 08:23:29;;;;;;;7.75;4.05;;;16.60;95.00;;;;;;5011573;28;20030;-54
2022/05/25 08:25:54;;;;;;;6.53;3.72;;;16.90;94.40;;;;;;5012222;28;20091;-53
2022/05/25 08:28:20;;;;;;;6.22;3.60;;;17.00;93.90;;;;;;5013071;28;20049;-56
2022/05/25 08:30:46;;;;;;;4.30;3.58;;;17.00;94.00;;;;;;5010976;28;20066;-55
2022/05/25 08:33:15;;;;;;;10.60;4.22;;;17.00;94.00;;;;;;4986220;28;20488;-54
2022/05/25 08:35:40;;;;;;;8.70;4.38;;;17.00;93.30;;;;;;5010589;28;20037;-51
2022/05/25 08:38:06;;;;;;;8.10;4.07;;;16.90;94.20;;;;;;5013050;28;20026;-56
2022/05/25 08:40:33;;;;;;;7.07;4.13;;;17.00;94.10;;;;;;5013594;28;20057;-53
2022/05/25 08:43:08;;;;;;;7.35;4.55;;;17.10;94.10;;;;;;5010927;28;20049;-55
2022/05/25 08:45:43;;;;;;;15.07;4.60;;;17.40;93.80;;;;;;5013285;28;20021;-52
2022/05/25 08:48:13;;;;;;;20.10;5.38;;;17.60;93.50;;;;;;5012940;28;20202;-53
2022/05/25 08:50:39;;;;;;;9.95;4.38;;;17.70;93.00;;;;;;5012901;28;20029;-55
2022/05/25 08:53:10;;;;;;;6.90;4.50;;;17.60;93.50;;;;;;5014153;28;20211;-53
2022/05/25 08:55:57;;;;;;;11.13;4.70;;;17.90;92.90;;;;;;5014094;28;20026;-56
2022/05/25 08:58:29;;;;;;;6.93;4.40;;;18.00;92.50;;;;;;5014344;28;20025;-59
2022/05/25 09:00:58;;;;;;;11.50;4.95;;;18.00;92.30;;;;;;4996047;28;20026;-54
2022/05/25 09:03:38;;;;;;;6.40;4.53;;;17.90;92.70;;;;;;5014096;28;20050;-54
2022/05/25 09:06:14;;;;;;;6.05;4.53;;;18.20;92.70;;;;;;5012767;28;20036;-56
2022/05/25 09:08:59;;;;;;;8.38;4.60;;;18.40;92.20;;;;;;5014325;28;20029;-57
2022/05/25 09:11:34;;;;;;;9.73;5.63;;;18.70;92.00;;;;;;4996058;28;20034;-56
2022/05/25 09:14:11;;;;;;;6.00;4.72;;;18.40;91.80;;;;;;5013387;28;20029;-54
2022/05/25 09:16:37;;;;;;;9.00;5.70;;;18.00;92.20;;;;;;5009320;28;20482;-56
2022/05/25 09:19:17;;;;;;;13.63;5.50;;;18.00;92.00;;;;;;4994962;28;20112;-51
2022/05/25 09:21:55;;;;;;;6.68;5.03;;;18.20;92.10;;;;;;5013035;28;20033;-55
2022/05/25 09:24:23;;;;;;;7.10;5.18;;;18.40;91.80;;;;;;5011245;28;20033;-55
2022/05/25 09:26:49;;;;;;;15.02;4.15;;;18.60;91.30;;;;;;4994548;28;20038;-53
2022/05/25 09:29:16;;;;;;;10.73;4.25;;;18.60;91.00;;;;;;4995730;28;20065;-57
2022/05/25 09:31:57;;;;;;;12.48;4.47;;;18.50;91.30;;;;;;4995465;28;20033;-54
2022/05/25 09:34:48;;;;;;;7.10;4.00;;;18.50;91.00;;;;;;5013033;28;20026;-57
2022/05/25 09:37:36;;;;;;;7.22;3.72;;;18.70;91.40;;;;;;5011134;28;20038;-57
2022/05/25 09:40:13;;;;;;;7.68;4.40;;;19.00;90.80;;;;;;5012868;28;20040;-54
2022/05/25 09:42:38;;;;;;;9.50;4.57;;;18.90;90.50;;;;;;4994753;28;20022;-52
2022/05/25 09:45:09;;;;;;;12.00;4.43;;;19.00;90.80;;;;;;5012293;28;20061;-53
2022/05/25 09:47:44;;;;;;;16.38;5.78;;;19.10;90.80;;;;;;5010766;28;20053;-53
2022/05/25 09:50:41;;;;;;;12.55;5.55;;;18.80;90.60;;;;;;5011922;28;20042;-54
2022/05/25 09:53:11;;;;;;;7.40;4.90;;;18.50;91.50;;;;;;5010662;28;20432;-55
2022/05/25 09:55:42;;;;;;;4.95;3.60;;;18.70;91.10;;;;;;5011205;28;20132;-54
2022/05/25 09:58:26;;;;;;;4.43;3.45;;;18.80;90.70;;;;;;5012133;28;20083;-56
2022/05/25 10:00:59;;;;;;;8.18;3.40;;;19.00;90.10;;;;;;5013181;28;20113;-55
2022/05/25 10:03:41;;;;;;;8.52;4.45;;;19.40;88.00;;;;;;5010771;28;20095;-51
2022/05/25 10:06:31;;;;;;;8.55;4.05;;;19.30;88.70;;;;;;5010087;28;20124;-55
2022/05/25 10:09:24;;;;;;;25.08;5.15;;;18.90;90.20;;;;;;5010787;28;20054;-53
2022/05/25 10:11:55;;;;;;;9.32;4.35;;;18.90;90.50;;;;;;5010699;28;20124;-55
2022/05/25 10:14:27;;;;;;;8.88;4.13;;;19.10;90.10;;;;;;4993913;28;20098;-53
2022/05/25 10:17:15;;;;;;;21.70;4.13;;;19.30;89.80;;;;;;5010310;28;20152;-52
2022/05/25 10:19:50;;;;;;;23.60;5.22;;;19.50;88.40;;;;;;5010683;28;20042;-57
2022/05/25 10:22:41;;;;;;;12.63;5.15;;;19.70;86.80;;;;;;5010728;28;20095;-52
2022/05/25 10:25:06;;;;;;;7.03;3.80;;;19.60;87.70;;;;;;5010457;28;20061;-52
2022/05/25 10:27:40;;;;;;;5.95;3.90;;;19.90;85.30;;;;;;5011867;28;20056;-56
2022/05/25 10:36:45;;;;;;;5.15;3.15;;;19.40;86.50;;;;;;5010331;28;20029;-55
2022/05/25 10:39:24;;;;;;;6.53;3.10;;;19.10;86.50;;;;;;5011437;28;20032;-55
2022/05/25 10:42:15;;;;;;;3.92;3.20;;;19.10;86.60;;;;;;5010634;28;20513;-55
2022/05/25 10:44:59;;;;;;;5.32;2.85;;;19.70;85.10;;;;;;5006805;28;20077;-54
2022/05/25 10:47:47;;;;;;;6.63;3.10;;;19.90;84.40;;;;;;5012825;28;20057;-51
2022/05/25 10:50:36;;;;;;;4.70;2.33;;;19.90;84.00;;;;;;5012900;28;20265;-56
2022/05/25 10:53:22;;;;;;;9.80;5.65;;;19.80;80.90;;;;;;5012839;28;20560;-52
2022/05/25 10:55:53;;;;;;;5.47;2.90;;;19.90;81.70;;;;;;5012018;28;20366;-53
2022/05/25 10:58:33;;;;;;;6.70;2.40;;;19.90;80.30;;;;;;5010551;28;20040;-53
2022/05/25 11:01:09;;;;;;;14.73;3.17;;;20.10;80.10;;;;;;5010878;28;20069;-53
2022/05/25 11:03:46;;;;;;;12.07;3.00;;;20.10;79.40;;;;;;5010380;28;20025;-55
2022/05/25 11:06:52;;;;;;;8.23;2.90;;;20.30;80.00;;;;;;5011053;28;20473;-53
2022/05/25 11:09:24;;;;;;;4.78;2.40;;;20.60;78.80;;;;;;5012161;28;20502;-56
2022/05/25 11:12:20;;;;;;;4.18;2.38;;;20.60;78.90;;;;;;5014433;28;20081;-55
2022/05/25 11:14:55;;;;;;;9.35;2.95;;;20.40;75.50;;;;;;5013533;28;20062;-53
2022/05/25 11:17:30;;;;;;;;;;;20.10;77.90;;;;;;5014808;28;20021;-52
2022/05/25 11:20:21;;;;;;;3.50;2.50;;;20.00;77.90;;;;;;5014240;28;19920;-55
2022/05/25 11:23:24;;;;;;;6.47;2.30;;;19.80;77.80;;;;;;5013858;28;20124;-55
2022/05/25 11:26:30;;;;;;;4.72;2.28;;;19.90;79.40;;;;;;5015082;28;20038;-54
2022/05/25 11:29:43;;;;;;;3.97;2.72;;;20.30;79.00;;;;;;5014546;28;20029;-55
2022/05/25 11:32:38;;;;;;;7.88;2.30;;;20.50;77.20;;;;;;4953303;28;20158;-53
2022/05/25 11:35:14;;;;;;;5.55;2.15;;;20.40;77.30;;;;;;4953081;29;20031;-51
2022/05/25 11:37:59;;;;;;;7.43;2.30;;;20.40;77.40;;;;;;5000051;28;20041;-54
2022/05/25 11:40:36;;;;;;;3.97;2.00;;;20.30;77.70;;;;;;5013687;28;20363;-56
2022/05/25 11:43:16;;;;;;;3.30;2.03;;;20.70;78.40;;;;;;5014769;28;20088;-56
2022/05/25 11:45:58;;;;;;;4.15;2.50;;;20.60;77.50;;;;;;5011823;28;20018;-55
2022/05/25 11:48:45;;;;;;;6.65;2.35;;;20.00;79.20;;;;;;5014865;28;20026;-53
2022/05/25 11:51:35;;;;;;;5.03;2.50;;;19.80;79.80;;;;;;5013696;28;20025;-55
2022/05/25 11:54:17;;;;;;;3.80;2.30;;;19.60;79.30;;;;;;5014006;28;20040;-56
2022/05/25 11:57:12;;;;;;;3.05;2.08;;;19.80;79.70;;;;;;5013163;28;20025;-52
2022/05/25 12:00:05;;;;;;;4.32;2.30;;;20.10;78.80;;;;;;5012304;28;20025;-53
2022/05/25 12:02:59;;;;;;;2.65;1.83;;;19.90;78.50;;;;;;5012510;28;20018;-52
2022/05/25 12:05:43;;;;;;;2.60;2.00;;;19.80;78.80;;;;;;5015546;28;20045;-51
2022/05/25 12:08:33;;;;;;;2.95;2.45;;;20.20;78.30;;;;;;5015856;28;20117;-54
2022/05/25 12:11:15;;;;;;;7.28;3.22;;;20.50;75.70;;;;;;5013428;28;20036;-55
2022/05/25 12:14:08;;;;;;;20.02;2.70;;;20.30;76.00;;;;;;5015864;28;20030;-55
2022/05/25 12:16:43;;;;;;;5.55;2.10;;;20.30;77.10;;;;;;5022032;28;20041;-52
2022/05/25 12:19:26;;;;;;;5.57;2.22;;;20.50;75.40;;;;;;5025487;28;20230;-57
2022/05/25 12:21:58;;;;;;;8.60;2.50;;;20.50;74.30;;;;;;5024828;28;20115;-54
2022/05/25 12:24:32;;;;;;;3.72;2.15;;;20.60;75.00;;;;;;5025359;28;20045;-56
2022/05/25 12:27:02;;;;;;;2.60;1.73;;;21.10;72.60;;;;;;5015130;28;20038;-51
2022/05/25 12:29:43;;;;;;;8.13;2.10;;;21.10;73.50;;;;;;5015137;28;20040;-56
2022/05/25 12:32:09;;;;;;;19.80;3.33;;;21.30;71.80;;;;;;5014624;28;20041;-54
2022/05/25 12:34:40;;;;;;;4.38;2.00;;;21.00;71.90;;;;;;5015368;28;20026;-48
2022/05/25 12:37:09;;;;;;;11.43;2.55;;;21.10;72.40;;;;;;5016188;28;20022;-52
2022/05/25 12:39:47;;;;;;;4.43;2.20;;;21.40;72.00;;;;;;4997990;28;20030;-54
2022/05/25 12:42:30;;;;;;;6.55;1.95;;;21.70;70.90;;;;;;5014675;28;20108;-56
2022/05/25 12:50:48;;;;;;;4.47;1.95;;;21.20;70.20;;;;;;5013011;28;20228;-54
2022/05/25 12:53:29;;;;;;;5.63;2.05;;;21.20;70.00;;;;;;5015279;28;20041;-50
2022/05/25 12:55:58;;;;;;;4.13;1.98;;;21.40;70.60;;;;;;5015269;28;20085;-52
2022/05/25 12:58:46;;;;;;;2.22;1.88;;;21.50;71.00;;;;;;5016824;28;20045;-52
2022/05/25 13:01:14;;;;;;;3.83;2.00;;;21.40;70.30;;;;;;4998704;28;20493;-50
2022/05/25 13:03:46;;;;;;;4.88;1.65;;;21.50;70.00;;;;;;4996948;28;20088;-49
2022/05/25 13:06:13;;;;;;;4.47;2.38;;;21.80;69.40;;;;;;5018577;28;20061;-53
2022/05/25 13:08:50;;;;;;;5.78;2.10;;;21.70;70.00;;;;;;5015987;28;20085;-51
2022/05/25 13:11:48;;;;;;;2.03;1.90;;;21.90;68.50;;;;;;5016889;28;20052;-49
2022/05/25 13:14:17;;;;;;;6.55;2.10;;;21.50;68.30;;;;;;5000410;28;20026;-51
2022/05/25 13:16:42;;;;;;;3.88;1.70;;;21.30;69.10;;;;;;5012881;28;20018;-54
2022/05/25 13:19:32;;;;;;;4.95;1.80;;;21.30;69.20;;;;;;5012522;28;20087;-50
2022/05/25 13:22:04;;;;;;;3.42;1.90;;;21.60;68.70;;;;;;5009393;28;20433;-53
2022/05/25 13:24:48;;;;;;;2.88;2.00;;;21.90;68.70;;;;;;5002339;28;20449;-51
2022/05/25 13:27:16;;;;;;;11.13;3.05;;;22.00;67.30;;;;;;5012953;28;20042;-52
2022/05/25 13:30:17;;;;;;;5.05;2.15;;;22.00;65.70;;;;;;5013110;28;20060;-50
2022/05/25 13:32:48;;;;;;;6.18;1.90;;;22.30;64.60;;;;;;5007163;28;20516;-55
2022/05/25 13:35:45;;;;;;;3.45;1.80;;;22.30;65.10;;;;;;5013552;28;20034;-51
2022/05/25 13:38:23;;;;;;;3.60;2.05;;;22.20;63.90;;;;;;5014007;28;20026;-52
2022/05/25 13:40:57;;;;;;;4.30;2.05;;;22.30;64.40;;;;;;5013312;28;20068;-54
2022/05/25 13:43:29;;;;;;;;;;;22.40;64.70;;;;;;5014757;28;20033;-56